Terminal Aerodrome Forecast
Issued by NWS

Home | Current Version | Previous Version | Text Only | Print | Product List | Glossary On
Versions: 1 2 3 4 5 6 7 8 9 10 11 12 13 14 15 16 17 18 19 20
000
FTAK31 PAJN 200300 AAA
TAFAJN
TAF AMD
PAJN 200302Z 2003/2024 08009KT P6SM -SHRA FEW015 BKN035 OVC050
     FM200600 10008KT P6SM VCSH SCT020 OVC040
     FM201100 08004KT P6SM -RA SCT025 OVC050
     FM201400 10014KT 5SM RA BR BKN025 OVC035 WS020/14035KT
     FM202200 13011KT P6SM -SHRA SCT025 OVC035=

USA.gov is the U.S. government's official web portal to all federal, state and local government web resources and services.